Time;durP1;ratioP1;P1;durP2;ratioP2;P2;SDS_P1;SDS_P2;PMS_P1;PMS_P2;Temp;Humidity;BMP_temperature;BMP_pressure;BME280_temperature;BME280_humidity;BME280_pressure;Samples;Min_cycle;Max_cycle;Signal;HPM_P1;HPM_P2
2023/06/12 00:01:12;;;;;;;;;;;20.80;67.40;;;;;;5114727;27;19920;-71
2023/06/12 00:03:40;;;;;;;;;;;20.80;67.80;;;;;;5114281;27;20010;-70
2023/06/12 00:06:09;;;;;;;;;;;20.80;68.00;;;;;;5096889;27;19943;-70
2023/06/12 00:08:35;;;;;;;;;;;20.80;68.30;;;;;;5113433;27;19930;-70
2023/06/12 00:11:07;;;;;;;;;;;20.80;68.40;;;;;;5113889;27;19971;-70
2023/06/12 00:13:32;;;;;;;;;;;20.80;68.50;;;;;;5095827;28;20299;-70
2023/06/12 00:15:58;;;;;;;;;;;20.80;68.70;;;;;;5113766;27;20053;-70
2023/06/12 00:18:23;;;;;;;;;;;20.70;69.00;;;;;;5113595;27;19924;-70
2023/06/12 00:20:49;;;;;;;;;;;20.60;69.20;;;;;;5117209;27;19919;-70
2023/06/12 00:23:14;;;;;;;;;;;20.60;69.60;;;;;;5110507;27;19990;-71
2023/06/12 00:25:40;;;;;;;;;;;20.60;69.80;;;;;;5116715;27;19920;-71
2023/06/12 00:28:05;;;;;;;;;;;20.50;70.00;;;;;;5114049;27;19966;-70
2023/06/12 00:30:31;;;;;;;;;;;20.50;70.30;;;;;;5114954;27;19951;-70
2023/06/12 00:32:56;;;;;;;;;;;20.40;70.60;;;;;;5112400;27;20269;-70
2023/06/12 00:35:22;;;;;;;;;;;20.40;70.50;;;;;;5114100;27;19920;-70
2023/06/12 00:37:48;;;;;;;;;;;20.40;70.50;;;;;;5111930;27;19967;-70
2023/06/12 00:40:14;;;;;;;;;;;20.30;70.70;;;;;;5114189;27;19927;-70
2023/06/12 00:42:41;;;;;;;;;;;20.30;71.10;;;;;;5112558;27;19920;-70
2023/06/12 00:45:08;;;;;;;;;;;20.30;71.80;;;;;;5112531;27;19923;-71
2023/06/12 00:47:33;;;;;;;;;;;20.20;71.60;;;;;;5100134;28;19961;-70
2023/06/12 00:49:59;;;;;;;;;;;20.20;72.00;;;;;;5113029;27;20294;-70
2023/06/12 00:52:29;;;;;;;;;;;20.10;72.10;;;;;;5112535;27;19967;-70
2023/06/12 00:54:55;;;;;;;;;;;20.10;72.20;;;;;;5112964;27;19924;-71
2023/06/12 00:57:22;;;;;;;;;;;20.00;72.80;;;;;;5108208;27;19930;-70
2023/06/12 00:59:48;;;;;;;;;;;20.00;73.00;;;;;;5107364;27;19921;-70
2023/06/12 01:02:14;;;;;;;;;;;19.90;73.30;;;;;;5111659;27;20432;-70
2023/06/12 01:04:42;;;;;;;;;;;19.90;73.50;;;;;;5112188;27;19920;-70
2023/06/12 01:07:20;;;;;;;;;;;19.80;74.00;;;;;;5111664;27;19931;-71
2023/06/12 01:09:52;;;;;;;;;;;19.80;74.20;;;;;;5111460;27;19919;-70
2023/06/12 01:12:20;;;;;;;;;;;19.70;74.80;;;;;;5110538;27;19964;-70
2023/06/12 01:14:46;;;;;;;;;;;19.70;75.10;;;;;;5109954;27;20010;-71
2023/06/12 01:17:11;;;;;;;;;;;19.70;75.20;;;;;;5112997;27;19998;-70
2023/06/12 01:19:37;;;;;;;;;;;19.60;75.50;;;;;;5117226;27;20343;-71
2023/06/12 01:22:08;;;;;;;;;;;19.60;75.90;;;;;;5113157;27;19926;-70
2023/06/12 01:24:40;;;;;;;;;;;19.60;76.00;;;;;;5098589;28;19919;-70
2023/06/12 01:27:06;;;;;;;;;;;19.60;76.30;;;;;;5097064;27;20316;-70
2023/06/12 01:29:45;;;;;;;;;;;19.50;76.50;;;;;;5113027;27;19999;-71
2023/06/12 01:32:17;;;;;;;;;;;19.50;76.80;;;;;;5113211;27;19920;-70
2023/06/12 01:34:51;;;;;;;;;;;19.50;76.90;;;;;;5100416;27;19920;-70
2023/06/12 01:37:22;;;;;;;;;;;19.40;77.00;;;;;;5113222;27;20513;-70
2023/06/12 01:39:58;;;;;;;;;;;19.40;77.40;;;;;;5111020;27;20323;-70
2023/06/12 01:42:25;;;;;;;;;;;19.40;77.70;;;;;;5112632;27;19973;-71
2023/06/12 01:44:50;;;;;;;;;;;19.30;78.20;;;;;;5109676;27;19919;-70
2023/06/12 01:47:16;;;;;;;;;;;19.30;78.60;;;;;;5109667;27;20516;-70
2023/06/12 01:49:41;;;;;;;;;;;19.30;79.20;;;;;;5110964;27;20311;-70
2023/06/12 01:52:07;;;;;;;;;;;19.30;79.90;;;;;;5111320;27;19934;-70
2023/06/12 01:54:33;;;;;;;;;;;19.20;80.70;;;;;;5109585;28;20367;-70
2023/06/12 01:56:59;;;;;;;;;;;19.30;81.40;;;;;;5095275;28;19924;-70
2023/06/12 01:59:24;;;;;;;;;;;19.20;82.30;;;;;;5110671;28;19964;-70
2023/06/12 02:01:50;;;;;;;;;;;19.10;82.60;;;;;;5110364;27;19963;-70
2023/06/12 02:04:17;;;;;;;;;;;19.10;83.50;;;;;;5111152;28;19963;-70
2023/06/12 02:06:42;;;;;;;;;;;19.00;84.00;;;;;;5112298;28;19968;-70
2023/06/12 02:09:08;;;;;;;;;;;19.00;84.90;;;;;;5108906;28;19923;-70
2023/06/12 02:11:33;;;;;;;;;;;19.00;85.80;;;;;;5109240;28;20330;-70
2023/06/12 02:13:59;;;;;;;;;;;18.90;86.50;;;;;;5097645;28;19921;-70
2023/06/12 02:16:24;;;;;;;;;;;18.90;87.30;;;;;;5110954;28;20041;-70
2023/06/12 02:18:50;;;;;;;;;;;18.90;87.90;;;;;;5111305;28;19926;-70
2023/06/12 02:21:16;;;;;;;;;;;18.80;88.70;;;;;;5110865;28;19959;-70
2023/06/12 02:23:41;;;;;;;;;;;18.80;89.30;;;;;;5111268;28;19926;-71
2023/06/12 02:26:07;;;;;;;;;;;18.70;89.80;;;;;;5114483;28;19927;-70
2023/06/12 02:28:32;;;;;;;;;;;18.70;90.40;;;;;;5112953;28;19926;-70
2023/06/12 02:30:58;;;;;;;;;;;18.70;90.70;;;;;;5081671;28;20006;-70
2023/06/12 02:33:25;;;;;;;;;;;18.70;91.00;;;;;;5107078;28;19931;-71
2023/06/12 02:35:51;;;;;;;;;;;18.60;91.80;;;;;;5109770;28;19920;-71
2023/06/12 02:38:16;;;;;;;;;;;18.60;91.90;;;;;;5109163;28;20350;-71
2023/06/12 02:40:42;;;;;;;;;;;18.60;92.10;;;;;;5111586;28;19920;-69
2023/06/12 02:43:07;;;;;;;;;;;18.60;92.60;;;;;;5119171;28;20038;-70
2023/06/12 02:45:33;;;;;;;;;;;18.60;93.10;;;;;;5120211;28;20048;-70
2023/06/12 02:47:58;;;;;;;;;;;18.50;93.30;;;;;;5120846;28;20303;-69
2023/06/12 02:50:24;;;;;;;;;;;18.50;93.70;;;;;;5107015;28;19954;-69
2023/06/12 02:52:50;;;;;;;;;;;18.50;94.10;;;;;;5121169;28;20294;-69
2023/06/12 02:55:15;;;;;;;;;;;18.50;94.20;;;;;;5124921;28;19953;-69
2023/06/12 02:57:41;;;;;;;;;;;18.50;94.40;;;;;;5121253;28;20010;-69
2023/06/12 03:00:07;;;;;;;;;;;18.40;94.60;;;;;;5126090;27;19919;-69
2023/06/12 03:02:32;;;;;;;;;;;18.40;94.80;;;;;;5121060;28;19969;-69
2023/06/12 03:04:59;;;;;;;;;;;18.40;94.90;;;;;;5119735;28;19920;-70
2023/06/12 03:07:27;;;;;;;;;;;18.40;95.10;;;;;;5116313;28;19930;-70
2023/06/12 03:09:52;;;;;;;;;;;18.30;95.30;;;;;;5106897;27;20294;-70
2023/06/12 03:12:18;;;;;;;;;;;18.20;95.40;;;;;;5128667;27;19919;-69
2023/06/12 03:14:44;;;;;;;;;;;18.10;95.60;;;;;;5104683;28;20942;-69
2023/06/12 03:17:09;;;;;;;;;;;18.10;95.90;;;;;;5107596;28;19920;-69
2023/06/12 03:19:35;;;;;;;;;;;18.00;96.20;;;;;;5103759;28;19926;-69
2023/06/12 03:22:00;;;;;;;;;;;18.00;96.60;;;;;;5081755;28;19920;-69
2023/06/12 03:24:26;;;;;;;;;;;17.90;96.90;;;;;;5093000;28;19920;-70
2023/06/12 03:26:52;;;;;;;;;;;17.90;97.00;;;;;;5107843;28;19976;-69
2023/06/12 03:29:18;;;;;;;;;;;17.80;97.50;;;;;;5103002;28;20030;-69
2023/06/12 03:31:44;;;;;;;;;;;17.80;97.60;;;;;;5107615;28;19935;-70
2023/06/12 03:34:09;;;;;;;;;;;17.80;97.90;;;;;;5103410;28;20580;-69
2023/06/12 03:36:36;;;;;;;;;;;17.80;98.10;;;;;;5107452;28;19927;-69
2023/06/12 03:39:02;;;;;;;;;;;17.80;98.20;;;;;;5101621;28;19924;-69
2023/06/12 03:41:28;;;;;;;;;;;17.80;98.40;;;;;;5099964;28;19926;-69
2023/06/12 03:43:54;;;;;;;;;;;17.70;98.50;;;;;;5095344;28;19924;-70
2023/06/12 03:46:19;;;;;;;;;;;17.70;98.80;;;;;;5109064;28;19950;-69
2023/06/12 03:48:45;;;;;;;;;;;17.70;99.10;;;;;;5095318;28;20294;-70
2023/06/12 03:51:11;;;;;;;;;;;17.70;99.30;;;;;;5109271;28;19919;-72
2023/06/12 03:53:37;;;;;;;;;;;17.60;99.70;;;;;;5106330;28;19920;-72
2023/06/12 03:56:02;;;;;;;;;;;17.60;99.80;;;;;;5083987;28;19931;-72
2023/06/12 03:58:28;;;;;;;;;;;17.60;99.90;;;;;;5105182;28;19919;-71
2023/06/12 04:00:54;;;;;;;;;;;17.50;99.90;;;;;;5101468;28;19927;-72
2023/06/12 04:03:21;;;;;;;;;;;17.50;99.90;;;;;;5103257;28;19927;-71
2023/06/12 04:05:52;;;;;;;;;;;17.50;99.90;;;;;;5108724;28;19920;-71
2023/06/12 04:08:18;;;;;;;;;;;17.50;99.90;;;;;;5103274;28;19920;-72
2023/06/12 04:10:44;;;;;;;;;;;17.50;99.90;;;;;;5100275;28;20390;-72
2023/06/12 04:13:10;;;;;;;;;;;17.50;99.90;;;;;;5111603;27;19919;-71
2023/06/12 04:15:37;;;;;;;;;;;17.50;99.90;;;;;;5128418;27;19920;-71
2023/06/12 04:18:04;;;;;;;;;;;17.50;99.90;;;;;;5115290;27;20307;-72
2023/06/12 04:20:32;;;;;;;;;;;17.60;99.90;;;;;;5118488;27;19926;-71
2023/06/12 04:22:57;;;;;;;;;;;17.60;99.90;;;;;;5112853;27;19934;-71
2023/06/12 04:25:25;;;;;;;;;;;17.60;99.90;;;;;;5110303;27;19923;-72
2023/06/12 04:27:51;;;;;;;;;;;17.70;99.90;;;;;;5106854;27;19964;-71
2023/06/12 04:30:16;;;;;;;;;;;17.70;99.90;;;;;;5117913;27;20298;-72
2023/06/12 04:32:42;;;;;;;;;;;17.70;99.90;;;;;;5124885;27;19933;-71
2023/06/12 04:35:08;;;;;;;;;;;17.80;99.90;;;;;;5119226;27;20381;-71
2023/06/12 04:37:33;;;;;;;;;;;17.80;99.90;;;;;;5123965;27;19919;-72
2023/06/12 04:39:59;;;;;;;;;;;17.80;99.90;;;;;;5117375;27;20402;-72
2023/06/12 04:42:26;;;;;;;;;;;17.80;99.90;;;;;;5121941;27;19923;-71
2023/06/12 04:44:52;;;;;;;;;;;17.80;99.90;;;;;;5120079;27;20069;-72
2023/06/12 04:47:18;;;;;;;;;;;17.80;99.90;;;;;;5125640;27;20342;-71
2023/06/12 04:49:45;;;;;;;;;;;17.90;99.90;;;;;;5128032;27;19926;-72
2023/06/12 04:52:12;;;;;;;;;;;17.90;99.90;;;;;;5124743;27;20374;-72
2023/06/12 04:54:44;;;;;;;;;;;17.90;99.90;;;;;;5117932;27;19919;-71
2023/06/12 04:57:13;;;;;;;;;;;17.90;99.90;;;;;;5123863;27;20400;-72
2023/06/12 04:59:39;;;;;;;;;;;17.90;99.90;;;;;;5109152;27;20458;-70
2023/06/12 05:02:08;;;;;;;;;;;17.90;99.90;;;;;;5125311;27;19919;-70
2023/06/12 05:04:36;;;;;;;;;;;17.90;99.90;;;;;;5125774;27;19919;-69
2023/06/12 05:07:03;;;;;;;;;;;17.90;99.90;;;;;;5125372;27;19957;-69
2023/06/12 05:09:29;;;;;;;;;;;18.00;99.90;;;;;;5124407;27;19927;-69
2023/06/12 05:11:54;;;;;;;;;;;18.00;99.90;;;;;;5124436;27;20370;-69
2023/06/12 05:14:20;;;;;;;;;;;17.90;99.90;;;;;;5124299;27;19990;-69
2023/06/12 05:16:46;;;;;;;;;;;17.90;99.90;;;;;;5124305;27;19927;-70
2023/06/12 05:19:12;;;;;;;;;;;17.90;99.90;;;;;;5124860;27;19931;-66
2023/06/12 05:21:41;;;;;;;;;;;18.00;99.90;;;;;;5119769;27;20318;-68
2023/06/12 05:24:07;;;;;;;;;;;18.00;99.90;;;;;;5090942;28;19930;-68
2023/06/12 05:26:32;;;;;;;;;;;18.10;99.90;;;;;;5113010;27;20302;-69
2023/06/12 05:28:58;;;;;;;;;;;18.10;99.90;;;;;;5107433;28;20011;-69
2023/06/12 05:31:23;;;;;;;;;;;18.10;99.90;;;;;;5107444;27;20529;-69
2023/06/12 05:33:49;;;;;;;;;;;18.10;99.90;;;;;;5121939;27;19920;-69
2023/06/12 05:36:15;;;;;;;;;;;18.10;99.90;;;;;;5122541;27;19919;-69
2023/06/12 05:38:46;;;;;;;;;;;18.20;99.90;;;;;;5123238;27;19963;-69
2023/06/12 05:41:12;;;;;;;;;;;18.20;99.90;;;;;;5114120;27;20014;-69
2023/06/12 05:43:38;;;;;;;;;;;18.10;99.90;;;;;;5124545;27;19926;-69
2023/06/12 05:46:04;;;;;;;;;;;18.20;99.90;;;;;;5126799;27;20278;-69
2023/06/12 05:48:30;;;;;;;;;;;18.20;99.90;;;;;;5126092;27;19926;-69
2023/06/12 05:50:56;;;;;;;;;;;18.20;99.90;;;;;;5109614;27;19919;-69
2023/06/12 05:53:21;;;;;;;;;;;18.20;99.90;;;;;;5107521;27;19920;-69
2023/06/12 05:55:47;;;;;;;;;;;18.20;99.90;;;;;;5127167;27;19942;-69
2023/06/12 05:58:12;;;;;;;;;;;18.20;99.90;;;;;;5124264;27;19943;-69
2023/06/12 06:00:38;;;;;;;;;;;18.20;99.90;;;;;;5126950;27;20059;-69
2023/06/12 06:03:04;;;;;;;;;;;18.30;99.90;;;;;;5123623;27;19919;-69
2023/06/12 06:05:32;;;;;;;;;;;18.30;99.90;;;;;;5125970;27;19919;-69
2023/06/12 06:07:58;;;;;;;;;;;18.30;99.90;;;;;;5124521;28;19919;-69
2023/06/12 06:10:24;;;;;;;;;;;18.40;99.90;;;;;;5126631;28;19930;-69
2023/06/12 06:12:52;;;;;;;;;;;18.40;99.90;;;;;;5123466;28;20335;-69
2023/06/12 06:15:18;;;;;;;;;;;18.50;99.90;;;;;;5106107;28;20404;-69
2023/06/12 06:17:43;;;;;;;;;;;18.60;99.90;;;;;;5123184;27;19927;-69
2023/06/12 06:20:10;;;;;;;;;;;18.70;99.90;;;;;;5125191;28;19984;-69
2023/06/12 06:22:35;;;;;;;;;;;18.70;99.90;;;;;;5122203;27;19923;-69
2023/06/12 06:25:01;;;;;;;;;;;18.80;99.90;;;;;;5125420;27;19953;-69
2023/06/12 06:27:26;;;;;;;;;;;18.90;99.90;;;;;;5122382;28;20529;-70
2023/06/12 06:29:52;;;;;;;;;;;18.90;99.90;;;;;;5105677;28;19967;-69
2023/06/12 06:32:18;;;;;;;;;;;18.90;99.90;;;;;;5121808;28;19927;-69
2023/06/12 06:34:43;;;;;;;;;;;19.00;99.90;;;;;;5096989;28;20005;-70
2023/06/12 06:37:09;;;;;;;;;;;19.10;99.90;;;;;;5121889;27;19928;-69
2023/06/12 06:39:34;;;;;;;;;;;19.10;99.90;;;;;;5118909;28;19923;-69
2023/06/12 06:42:00;;;;;;;;;;;19.10;99.90;;;;;;5119513;27;19935;-69
2023/06/12 06:44:25;;;;;;;;;;;19.20;99.90;;;;;;5126435;27;20093;-69
2023/06/12 06:46:51;;;;;;;;;;;19.20;99.90;;;;;;5117068;27;20306;-70
2023/06/12 06:49:16;;;;;;;;;;;19.30;99.90;;;;;;5113429;27;20006;-69
2023/06/12 06:51:42;;;;;;;;;;;19.30;99.90;;;;;;5128889;27;20327;-69
2023/06/12 06:54:07;;;;;;;;;;;19.40;99.90;;;;;;5128958;27;19984;-69
2023/06/12 06:56:33;;;;;;;;;;;19.40;99.90;;;;;;5128613;27;19919;-70
2023/06/12 06:58:58;;;;;;;;;;;19.50;99.90;;;;;;5128335;27;19931;-69
2023/06/12 07:01:24;;;;;;;;;;;19.50;99.90;;;;;;5128682;27;19970;-70
2023/06/12 07:03:50;;;;;;;;;;;19.50;99.90;;;;;;5127651;27;19980;-69
2023/06/12 07:06:15;;;;;;;;;;;19.60;99.90;;;;;;5128962;27;19919;-69
2023/06/12 07:08:41;;;;;;;;;;;19.60;99.90;;;;;;5127659;27;19927;-69
2023/06/12 07:11:06;;;;;;;;;;;19.70;99.90;;;;;;5127048;27;19927;-69
2023/06/12 07:13:32;;;;;;;;;;;19.80;99.90;;;;;;5127517;27;20296;-69
2023/06/12 07:15:57;;;;;;;;;;;19.80;99.90;;;;;;5126640;27;20064;-69
2023/06/12 07:18:23;;;;;;;;;;;19.80;99.90;;;;;;5125271;27;19923;-70
2023/06/12 07:20:48;;;;;;;;;;;19.90;99.90;;;;;;5116486;27;19931;-69
2023/06/12 07:23:14;;;;;;;;;;;19.90;99.90;;;;;;5125845;27;19923;-69
2023/06/12 07:25:39;;;;;;;;;;;19.90;99.90;;;;;;5126261;27;20410;-69
2023/06/12 07:28:05;;;;;;;;;;;19.90;99.90;;;;;;5124154;27;20005;-71
2023/06/12 07:30:33;;;;;;;;;;;20.00;99.90;;;;;;5109050;27;19926;-69
2023/06/12 07:32:58;;;;;;;;;;;20.10;99.90;;;;;;5114575;27;19920;-70
2023/06/12 07:35:24;;;;;;;;;;;20.20;99.90;;;;;;5126126;27;19927;-69
2023/06/12 07:37:49;;;;;;;;;;;20.20;99.90;;;;;;5123557;27;20012;-69
2023/06/12 07:40:15;;;;;;;;;;;20.30;99.90;;;;;;5116769;27;19926;-70
2023/06/12 07:42:42;;;;;;;;;;;20.30;99.90;;;;;;5128553;27;19920;-69
2023/06/12 07:45:08;;;;;;;;;;;20.40;99.90;;;;;;5108890;27;19923;-69
2023/06/12 07:47:33;;;;;;;;;;;20.40;99.90;;;;;;5110634;27;20008;-70
2023/06/12 07:49:59;;;;;;;;;;;20.40;99.90;;;;;;5128395;27;19944;-70
2023/06/12 07:52:24;;;;;;;;;;;20.50;99.90;;;;;;5127608;27;19919;-70
2023/06/12 07:54:50;;;;;;;;;;;20.50;99.90;;;;;;5128031;27;20393;-70
2023/06/12 07:57:16;;;;;;;;;;;20.60;99.90;;;;;;5123343;27;19926;-69
2023/06/12 07:59:42;;;;;;;;;;;20.60;99.90;;;;;;5121722;27;20138;-69
2023/06/12 08:02:07;;;;;;;;;;;20.60;99.90;;;;;;5126475;27;19930;-70
2023/06/12 08:04:33;;;;;;;;;;;20.80;99.90;;;;;;5127160;27;20006;-70
2023/06/12 08:07:00;;;;;;;;;;;20.80;99.90;;;;;;5124487;27;20364;-69
2023/06/12 08:09:26;;;;;;;;;;;20.90;99.70;;;;;;5126425;27;20003;-69
2023/06/12 08:11:51;;;;;;;;;;;21.00;99.60;;;;;;5120111;27;20034;-69
2023/06/12 08:14:17;;;;;;;;;;;21.00;99.40;;;;;;5102633;27;19919;-70
2023/06/12 08:16:45;;;;;;;;;;;21.10;99.10;;;;;;5123746;27;19927;-70
2023/06/12 08:19:10;;;;;;;;;;;21.20;99.00;;;;;;5109020;27;19926;-70
2023/06/12 08:21:36;;;;;;;;;;;21.20;98.40;;;;;;5123620;27;19920;-70
2023/06/12 08:24:02;;;;;;;;;;;21.20;98.30;;;;;;5125373;27;19923;-69
2023/06/12 08:26:28;;;;;;;;;;;21.30;98.40;;;;;;5113959;27;19926;-69
2023/06/12 08:28:53;;;;;;;;;;;21.40;97.80;;;;;;5127024;27;19920;-69
2023/06/12 08:31:19;;;;;;;;;;;21.40;97.60;;;;;;5123532;27;19926;-70
2023/06/12 08:33:44;;;;;;;;;;;21.50;97.80;;;;;;5125533;27;19930;-69
2023/06/12 08:36:12;;;;;;;;;;;21.60;96.90;;;;;;5123694;27;19923;-70
2023/06/12 08:38:37;;;;;;;;;;;21.70;96.90;;;;;;5125003;27;20014;-69
2023/06/12 08:41:03;;;;;;;;;;;21.80;96.80;;;;;;5114649;27;20067;-69
2023/06/12 08:43:28;;;;;;;;;;;21.90;96.90;;;;;;5127814;27;19919;-70
2023/06/12 08:45:55;;;;;;;;;;;22.00;96.30;;;;;;5124078;27;19923;-70
2023/06/12 08:48:23;;;;;;;;;;;22.00;96.40;;;;;;5127913;27;20297;-69
2023/06/12 08:50:50;;;;;;;;;;;22.10;96.80;;;;;;5124756;27;20010;-70
2023/06/12 08:53:16;;;;;;;;;;;22.20;97.00;;;;;;5125475;27;19931;-69
2023/06/12 08:55:44;;;;;;;;;;;22.30;97.10;;;;;;5124460;27;19920;-70
2023/06/12 08:58:10;;;;;;;;;;;22.50;97.10;;;;;;5125481;27;20366;-69
2023/06/12 09:00:36;;;;;;;;;;;22.60;97.00;;;;;;5124069;27;20435;-70
2023/06/12 09:03:04;;;;;;;;;;;22.70;97.00;;;;;;5124194;27;19931;-69
2023/06/12 09:05:33;;;;;;;;;;;22.90;97.10;;;;;;5124664;27;20370;-70
2023/06/12 09:08:03;;;;;;;;;;;23.00;97.50;;;;;;5121751;27;19969;-70
2023/06/12 09:10:30;;;;;;;;;;;23.20;97.30;;;;;;5124322;27;20421;-70
2023/06/12 09:12:56;;;;;;;;;;;23.40;97.60;;;;;;5104234;28;19926;-70
2023/06/12 09:15:22;;;;;;;;;;;23.50;97.30;;;;;;5126423;27;20367;-70
2023/06/12 09:17:48;;;;;;;;;;;23.70;96.80;;;;;;5118926;27;19965;-69
2023/06/12 09:20:15;;;;;;;;;;;23.80;96.30;;;;;;5125208;27;19927;-70
2023/06/12 09:22:41;;;;;;;;;;;23.90;96.10;;;;;;5105367;27;20048;-70
2023/06/12 09:25:07;;;;;;;;;;;24.00;95.70;;;;;;5124213;27;20396;-70
2023/06/12 09:27:40;;;;;;;;;;;24.10;95.50;;;;;;5122722;27;19930;-70
2023/06/12 09:30:06;;;;;;;;;;;24.30;95.70;;;;;;5115726;27;19920;-69
2023/06/12 09:32:32;;;;;;;;;;;24.50;95.30;;;;;;5121163;27;19919;-70
2023/06/12 09:34:57;;;;;;;;;;;24.80;94.80;;;;;;5125860;27;20393;-70
2023/06/12 09:37:23;;;;;;;12.00;4.55;;;25.10;94.40;;;;;;5120908;27;19923;-70
2023/06/12 09:39:49;;;;;;;;;;;25.40;94.00;;;;;;5116827;27;20036;-70
2023/06/12 09:42:17;;;;;;;;;;;25.60;93.70;;;;;;5119532;27;19919;-71
2023/06/12 09:44:43;;;;;;;7.32;4.15;;;25.90;93.10;;;;;;5116344;27;19926;-70
2023/06/12 09:47:09;;;;;;;7.87;4.63;;;26.10;92.40;;;;;;5104432;27;20404;-70
2023/06/12 09:49:35;;;;;;;13.43;4.22;;;26.10;92.60;;;;;;5107105;27;20461;-70
2023/06/12 09:52:04;;;;;;;9.88;4.57;;;26.30;92.20;;;;;;5120010;27;20495;-70
2023/06/12 09:54:33;;;;;;;8.18;4.18;;;26.60;91.70;;;;;;5107476;27;20761;-70
2023/06/12 09:57:00;;;;;;;;;;;26.70;91.80;;;;;;5122369;27;20034;-71
2023/06/12 09:59:31;;;;;;;;;;;27.00;91.60;;;;;;5126172;27;19926;-70
2023/06/12 10:02:03;;;;;;;9.90;4.40;;;27.30;90.70;;;;;;5121809;27;19920;-70
2023/06/12 10:05:01;;;;;;;10.65;4.82;;;27.50;90.60;;;;;;5124257;27;20438;-70
2023/06/12 10:07:36;;;;;;;8.45;4.55;;;27.80;90.30;;;;;;5078855;28;20456;-70
2023/06/12 10:10:03;;;;;;;8.70;4.60;;;28.00;88.60;;;;;;5103534;28;20059;-70
2023/06/12 10:12:30;;;;;;;;;;;28.20;87.60;;;;;;5115376;28;20036;-70
2023/06/12 10:14:56;;;;;;;;;;;28.40;86.60;;;;;;5119633;28;19927;-71
2023/06/12 10:17:22;;;;;;;9.45;4.30;;;28.60;85.20;;;;;;5124680;28;20334;-71
2023/06/12 10:19:50;;;;;;;7.67;4.47;;;28.70;84.00;;;;;;5121492;27;20568;-70
2023/06/12 10:22:15;;;;;;;9.43;4.18;;;28.80;84.90;;;;;;5101461;28;20408;-71
2023/06/12 10:24:42;;;;;;;12.60;5.05;;;29.00;84.30;;;;;;5125302;27;20032;-71
2023/06/12 10:27:09;;;;;;;9.23;4.22;;;29.10;79.90;;;;;;5119181;27;20408;-71
2023/06/12 10:29:36;;;;;;;;;;;29.10;81.20;;;;;;5123763;27;20055;-70
2023/06/12 10:32:14;;;;;;;;;;;29.30;81.70;;;;;;5128720;27;19946;-71
2023/06/12 10:34:44;;;;;;;;;;;29.50;79.20;;;;;;5121778;27;19919;-71
2023/06/12 10:37:21;;;;;;;;;;;29.70;80.00;;;;;;5126945;27;19923;-71
2023/06/12 10:39:47;;;;;;;;;;;29.90;79.00;;;;;;5121786;27;19973;-71
2023/06/12 10:42:12;;;;;;;7.18;4.05;;;30.10;77.60;;;;;;5123367;27;19935;-71
2023/06/12 10:44:46;;;;;;;8.27;3.63;;;30.30;78.10;;;;;;5114403;27;20043;-72
2023/06/12 10:47:17;;;;;;;;;;;30.50;75.20;;;;;;5124931;27;20040;-69
2023/06/12 10:50:00;;;;;;;6.40;3.50;;;30.70;72.90;;;;;;5120085;27;19963;-70
2023/06/12 10:52:26;;;;;;;5.72;3.30;;;30.90;73.00;;;;;;5124033;27;20486;-71
2023/06/12 10:55:10;;;;;;;;;;;31.00;70.70;;;;;;5105670;27;20410;-71
2023/06/12 10:57:36;;;;;;;8.27;3.70;;;31.20;69.10;;;;;;5110211;27;19972;-70
2023/06/12 11:00:05;;;;;;;;;;;31.30;68.30;;;;;;5108908;27;20032;-71
2023/06/12 11:02:31;;;;;;;;;;;31.40;66.60;;;;;;5109202;27;19924;-71
2023/06/12 11:05:02;;;;;;;;;;;31.60;65.70;;;;;;5102113;27;19962;-71
2023/06/12 11:07:29;;;;;;;4.35;3.08;;;31.70;61.60;;;;;;5107087;27;19963;-71
2023/06/12 11:09:55;;;;;;;5.80;2.97;;;31.80;63.50;;;;;;5110514;28;20412;-71
2023/06/12 11:12:20;;;;;;;7.15;3.50;;;31.90;63.40;;;;;;5107576;27;20406;-72
2023/06/12 11:14:46;;;;;;;6.03;3.30;;;32.00;63.10;;;;;;5111190;27;20085;-72
2023/06/12 11:17:13;;;;;;;7.10;2.95;;;32.20;60.20;;;;;;5111218;27;20047;-72
2023/06/12 11:19:39;;;;;;;5.65;3.20;;;32.20;59.60;;;;;;5111527;27;20074;-70
2023/06/12 11:22:05;;;;;;;5.90;3.53;;;32.10;57.80;;;;;;5109268;28;20440;-73
2023/06/12 11:24:30;;;;;;;;;;;32.10;59.90;;;;;;5112791;27;20548;-73
2023/06/12 11:27:00;;;;;;;;;;;32.20;58.50;;;;;;5112923;28;19919;-74
2023/06/12 11:29:29;;;;;;;;;;;32.30;59.70;;;;;;5120389;27;19920;-73
2023/06/12 11:32:02;;;;;;;4.68;3.00;;;32.40;59.40;;;;;;5093629;27;19927;-73
2023/06/12 11:34:36;;;;;;;5.45;3.47;;;32.50;59.90;;;;;;5115572;27;20491;-72
2023/06/12 11:37:19;;;;;;;;;;;32.60;59.90;;;;;;5123941;27;20801;-73
2023/06/12 11:39:45;;;;;;;5.82;3.45;;;32.70;59.50;;;;;;5116046;27;19958;-73
2023/06/12 11:42:11;;;;;;;6.15;3.63;;;32.70;59.20;;;;;;5121947;27;20829;-73
2023/06/12 11:44:40;;;;;;;7.53;3.70;;;32.80;59.30;;;;;;5128887;27;20051;-73
2023/06/12 11:47:07;;;;;;;6.63;3.30;;;32.90;59.30;;;;;;5127439;27;20040;-73
2023/06/12 11:49:36;;;;;;;;;;;33.00;58.90;;;;;;5121181;27;20086;-73
2023/06/12 11:52:04;;;;;;;5.43;3.47;;;33.00;57.80;;;;;;5105210;27;20011;-73
2023/06/12 11:54:31;;;;;;;;;;;33.00;58.10;;;;;;5131035;27;20117;-73
2023/06/12 11:57:02;;;;;;;7.15;3.80;;;33.00;57.90;;;;;;5109340;27;20026;-73
2023/06/12 11:59:35;;;;;;;9.82;3.45;;;33.10;58.70;;;;;;5128684;27;20039;-73
2023/06/12 12:02:02;;;;;;;6.40;3.90;;;33.20;58.70;;;;;;5124010;27;20407;-73
2023/06/12 12:04:30;;;;;;;5.10;3.85;;;33.20;57.00;;;;;;5111364;27;20444;-73
2023/06/12 12:06:57;;;;;;;5.93;3.80;;;33.00;53.40;;;;;;5123777;27;20399;-73
2023/06/12 12:09:24;;;;;;;5.82;3.78;;;32.80;54.20;;;;;;5127073;27;20434;-73
2023/06/12 12:11:51;;;;;;;12.27;4.50;;;32.60;56.20;;;;;;5125187;27;20414;-73
2023/06/12 12:14:17;;;;;;;;;;;32.80;56.80;;;;;;5129707;27;20134;-73
2023/06/12 12:16:43;;;;;;;;;;;33.00;57.00;;;;;;5127694;27;20549;-73
2023/06/12 12:19:26;;;;;;;;;;;33.20;56.50;;;;;;5127860;27;19919;-73
2023/06/12 12:21:52;;;;;;;;;;;33.20;54.60;;;;;;5107911;27;21049;-73
2023/06/12 12:24:18;;;;;;;;;;;33.40;55.30;;;;;;5125324;27;19932;-73
2023/06/12 12:26:48;;;;;;;;;;;33.60;55.00;;;;;;5127936;27;19926;-73
2023/06/12 12:29:14;;;;;;;;;;;33.60;55.10;;;;;;5124770;27;19973;-73
2023/06/12 12:31:39;;;;;;;;;;;33.80;54.10;;;;;;5128009;27;19927;-73
2023/06/12 12:34:06;;;;;;;;;;;33.90;54.80;;;;;;5109835;27;20010;-73
2023/06/12 12:36:32;;;;;;;6.82;3.70;;;33.90;53.80;;;;;;5106827;27;19919;-73
2023/06/12 12:38:57;;;;;;;8.02;3.70;;;34.00;53.70;;;;;;5109659;27;20821;-73
2023/06/12 12:41:23;;;;;;;5.50;3.60;;;34.10;53.70;;;;;;5108174;28;20899;-72
2023/06/12 12:43:48;;;;;;;6.10;3.45;;;34.30;52.90;;;;;;5117969;27;20543;-73
2023/06/12 12:46:14;;;;;;;5.03;3.80;;;34.50;53.00;;;;;;5120351;27;20415;-73
2023/06/12 12:48:40;;;;;;;8.68;3.72;;;34.50;51.90;;;;;;5113687;27;20444;-73
2023/06/12 12:51:05;;;;;;;;;;;34.60;52.50;;;;;;5117802;27;20074;-74
2023/06/12 12:53:31;;;;;;;4.82;3.90;;;34.60;52.40;;;;;;5115875;27;20014;-73
2023/06/12 12:55:56;;;;;;;5.15;3.53;;;34.70;52.60;;;;;;5127137;27;20157;-74
2023/06/12 12:58:22;;;;;;;4.97;3.47;;;34.70;52.70;;;;;;5111787;27;20442;-74
2023/06/12 13:00:47;;;;;;;7.90;3.50;;;34.70;52.20;;;;;;5127187;27;20928;-74
2023/06/12 13:03:13;;;;;;;7.88;3.60;;;34.80;53.00;;;;;;5122476;27;20497;-74
2023/06/12 13:05:39;;;;;;;6.38;3.70;;;35.00;51.40;;;;;;5118953;27;20817;-73
2023/06/12 13:08:04;;;;;;;4.85;3.58;;;35.10;51.20;;;;;;5109983;28;20058;-73
2023/06/12 13:10:30;;;;;;;8.07;3.75;;;35.10;50.40;;;;;;5117676;27;20054;-73
2023/06/12 13:12:56;;;;;;;6.33;3.87;;;34.90;49.70;;;;;;5112615;27;20412;-73
2023/06/12 13:15:21;;;;;;;;;;;34.90;50.40;;;;;;5126202;27;20047;-73
2023/06/12 13:17:47;;;;;;;7.15;3.65;;;35.00;49.80;;;;;;5119309;27;19919;-74
2023/06/12 13:20:13;;;;;;;4.95;3.38;;;35.10;49.20;;;;;;5124568;27;20406;-73
2023/06/12 13:22:38;;;;;;;5.22;3.50;;;35.20;49.50;;;;;;5104062;27;20974;-73
2023/06/12 13:25:05;;;;;;;6.10;3.83;;;35.30;48.50;;;;;;5117574;27;20500;-74
2023/06/12 13:27:30;;;;;;;5.30;3.58;;;35.30;48.40;;;;;;5117244;27;20411;-73
2023/06/12 13:29:56;;;;;;;;;;;35.30;48.30;;;;;;5120089;27;20514;-73
2023/06/12 13:32:22;;;;;;;;;;;35.30;48.10;;;;;;5119120;27;19957;-73
2023/06/12 13:34:47;;;;;;;;;;;35.30;48.00;;;;;;5123544;27;19927;-73
2023/06/12 13:37:13;;;;;;;;;;;35.40;47.70;;;;;;5118910;27;19920;-73
2023/06/12 13:39:39;;;;;;;;;;;35.40;46.90;;;;;;5118258;27;20416;-73
2023/06/12 13:42:05;;;;;;;;;;;35.60;48.40;;;;;;5119629;27;20483;-73
2023/06/12 13:44:31;;;;;;;;;;;35.70;47.80;;;;;;5109088;28;19927;-73
2023/06/12 13:46:57;;;;;;;7.32;4.32;;;35.70;47.10;;;;;;5109259;27;19920;-73
2023/06/12 13:49:22;;;;;;;4.90;4.20;;;35.80;47.80;;;;;;5109227;27;20044;-73
2023/06/12 13:51:48;;;;;;;5.97;4.32;;;35.90;48.50;;;;;;5094787;27;20413;-74
2023/06/12 13:54:14;;;;;;;7.87;4.33;;;35.70;45.80;;;;;;5102555;28;20634;-74
2023/06/12 13:56:39;;;;;;;6.37;4.43;;;35.70;47.70;;;;;;5098816;27;20443;-74